createdAt,value
2022-11-05T00:01:40.128Z,9.40
2022-11-05T00:04:30.586Z,9.40
2022-11-05T00:07:24.618Z,9.40
2022-11-05T00:09:58.068Z,9.40
2022-11-05T00:12:43.683Z,9.40
2022-11-05T00:15:30.626Z,9.40
2022-11-05T00:17:57.537Z,9.40
2022-11-05T00:20:24.467Z,9.40
2022-11-05T00:23:17.732Z,9.40
2022-11-05T00:25:53.884Z,9.40
2022-11-05T00:28:20.808Z,9.40
2022-11-05T00:30:49.183Z,9.40
2022-11-05T00:33:16.945Z,9.30
2022-11-05T00:35:43.883Z,9.30
2022-11-05T00:38:11.099Z,9.30
2022-11-05T00:40:38.873Z,9.40
2022-11-05T00:43:24.477Z,9.30
2022-11-05T00:45:52.737Z,9.30
2022-11-05T00:48:38.622Z,9.30
2022-11-05T00:51:05.851Z,9.30
2022-11-05T00:53:32.889Z,9.30
2022-11-05T00:56:00.699Z,9.30
2022-11-05T00:58:29.082Z,9.30
2022-11-05T01:00:59.019Z,9.30
2022-11-05T01:03:28.861Z,9.30
2022-11-05T01:05:57.324Z,9.30
2022-11-05T01:08:26.752Z,9.30
2022-11-05T01:10:55.859Z,9.30
2022-11-05T01:13:25.238Z,9.30
2022-11-05T01:15:52.768Z,9.30
2022-11-05T01:18:22.410Z,9.30
2022-11-05T01:20:50.265Z,9.30
2022-11-05T01:23:17.625Z,9.30
2022-11-05T01:25:44.814Z,9.30
2022-11-05T01:28:11.847Z,9.30
2022-11-05T01:30:39.237Z,9.20
2022-11-05T01:33:06.500Z,9.20
2022-11-05T01:35:34.822Z,9.20
2022-11-05T01:38:01.794Z,9.20
2022-11-05T01:40:28.758Z,9.20
2022-11-05T01:42:55.638Z,9.30
2022-11-05T01:45:24.325Z,9.30
2022-11-05T01:47:58.095Z,9.30
2022-11-05T01:50:39.261Z,9.30
2022-11-05T01:53:15.893Z,9.30
2022-11-05T01:55:47.687Z,9.30
2022-11-05T01:58:19.627Z,9.30
2022-11-05T02:00:47.106Z,9.30
2022-11-05T02:03:15.021Z,9.30
2022-11-05T02:05:44.235Z,9.30
2022-11-05T02:08:17.817Z,9.30
2022-11-05T02:10:46.382Z,9.20
2022-11-05T02:13:13.519Z,9.20
2022-11-05T02:15:53.537Z,9.20
2022-11-05T02:18:31.486Z,9.20
2022-11-05T02:21:17.394Z,9.20
2022-11-05T02:24:01.574Z,9.20
2022-11-05T02:27:04.166Z,9.30
2022-11-05T02:29:58.189Z,9.30
2022-11-05T02:32:43.040Z,9.30
2022-11-05T02:35:21.724Z,9.20
2022-11-05T02:42:10.521Z,9.30
2022-11-05T02:44:44.971Z,9.20
2022-11-05T02:47:25.300Z,9.20
2022-11-05T02:50:04.038Z,9.20
2022-11-05T02:52:38.168Z,9.20
2022-11-05T02:55:16.243Z,9.20
2022-11-05T02:57:46.593Z,9.30
2022-11-05T03:00:42.038Z,9.30
2022-11-05T03:03:14.721Z,9.30
2022-11-05T03:05:54.450Z,9.30
2022-11-05T03:08:33.061Z,9.30
2022-11-05T03:11:04.030Z,9.30
2022-11-05T03:13:39.005Z,9.30
2022-11-05T03:16:11.890Z,9.20
2022-11-05T03:18:44.556Z,9.30
2022-11-05T03:21:20.312Z,9.30
2022-11-05T03:23:54.114Z,9.30
2022-11-05T03:26:26.339Z,9.20
2022-11-05T03:28:58.761Z,9.20
2022-11-05T03:31:28.976Z,9.20
2022-11-05T03:33:58.270Z,9.20
2022-11-05T03:36:30.870Z,9.20
2022-11-05T03:39:02.763Z,9.20
2022-11-05T03:41:31.438Z,9.20
2022-11-05T03:44:01.931Z,9.20
2022-11-05T03:46:33.055Z,9.20
2022-11-05T03:49:03.375Z,9.10
2022-11-05T03:51:41.226Z,9.20
2022-11-05T03:54:08.765Z,9.20
2022-11-05T03:56:39.346Z,9.20
2022-11-05T03:59:09.197Z,9.20
2022-11-05T04:01:37.358Z,9.10
2022-11-05T04:04:05.483Z,9.20
2022-11-05T04:06:52.206Z,9.20
2022-11-05T04:09:37.857Z,9.20
2022-11-05T04:12:24.092Z,9.20
2022-11-05T04:14:51.005Z,9.10
2022-11-05T04:17:17.884Z,9.10
2022-11-05T04:20:04.233Z,9.10
2022-11-05T04:22:52.328Z,9.20
2022-11-05T04:25:20.461Z,9.10
2022-11-05T04:27:47.536Z,9.10
2022-11-05T04:30:20.126Z,9.10
2022-11-05T04:33:12.103Z,9.20
2022-11-05T04:35:41.261Z,9.10
2022-11-05T04:38:10.825Z,9.10
2022-11-05T04:40:37.864Z,9.10
2022-11-05T04:43:08.238Z,9.00
2022-11-05T04:45:37.641Z,9.00
2022-11-05T04:48:04.953Z,9.00
2022-11-05T04:50:32.477Z,9.00
2022-11-05T04:52:59.505Z,9.00
2022-11-05T04:55:28.426Z,9.00
2022-11-05T04:57:55.917Z,9.00
2022-11-05T05:00:23.970Z,9.00
2022-11-05T05:02:50.960Z,9.00
2022-11-05T05:05:18.109Z,9.10
2022-11-05T05:07:45.002Z,9.10
2022-11-05T05:10:12.159Z,9.10
2022-11-05T05:12:40.432Z,9.10
2022-11-05T05:15:08.091Z,9.10
2022-11-05T05:17:34.947Z,9.10
2022-11-05T05:20:20.475Z,9.00
2022-11-05T05:22:52.799Z,9.10
2022-11-05T05:25:19.877Z,9.00
2022-11-05T05:27:48.124Z,9.00
2022-11-05T05:30:15.179Z,9.00
2022-11-05T05:32:42.178Z,9.00
2022-11-05T05:35:09.624Z,9.10
2022-11-05T05:37:36.502Z,9.00
2022-11-05T05:40:03.758Z,9.00
2022-11-05T05:42:30.791Z,9.00
2022-11-05T05:44:59.025Z,9.00
2022-11-05T05:47:25.932Z,9.00
2022-11-05T05:49:52.807Z,9.00
2022-11-05T05:52:19.743Z,9.10
2022-11-05T05:54:46.634Z,9.10
2022-11-05T05:57:13.510Z,9.10
2022-11-05T05:59:40.369Z,9.10
2022-11-05T06:02:08.699Z,9.10
2022-11-05T06:04:35.646Z,9.20
2022-11-05T06:07:02.517Z,9.10
2022-11-05T06:09:29.491Z,9.10
2022-11-05T06:11:56.377Z,9.10
2022-11-05T06:14:23.330Z,9.10
2022-11-05T06:16:50.249Z,9.20
2022-11-05T06:19:18.494Z,9.20
2022-11-05T06:21:45.350Z,9.20
2022-11-05T06:24:12.247Z,9.20
2022-11-05T06:26:42.802Z,9.10
2022-11-05T06:29:10.526Z,9.10
2022-11-05T06:31:37.464Z,9.10
2022-11-05T06:34:04.442Z,9.10
2022-11-05T06:36:33.456Z,9.10
2022-11-05T06:39:00.379Z,9.10
2022-11-05T06:41:27.231Z,9.10
2022-11-05T06:43:54.119Z,9.20
2022-11-05T06:46:21.016Z,9.20
2022-11-05T06:48:48.119Z,9.20
2022-11-05T06:51:15.414Z,9.20
2022-11-05T06:53:43.710Z,9.20
2022-11-05T06:56:10.619Z,9.20
2022-11-05T06:58:37.605Z,9.20
2022-11-05T07:01:08.009Z,9.20
2022-11-05T07:03:35.528Z,9.20
2022-11-05T07:06:04.483Z,9.30
2022-11-05T07:08:32.446Z,9.30
2022-11-05T07:11:01.067Z,9.30
2022-11-05T07:13:28.051Z,9.30
2022-11-05T07:15:55.036Z,9.30
2022-11-05T07:18:22.243Z,9.30
2022-11-05T07:20:49.372Z,9.30
2022-11-05T07:23:16.332Z,9.30
2022-11-05T07:25:43.706Z,9.30
2022-11-05T07:28:12.027Z,9.30
2022-11-05T07:30:38.926Z,9.30
2022-11-05T07:33:05.856Z,9.30
2022-11-05T07:35:32.823Z,9.30
2022-11-05T07:37:59.837Z,9.30
2022-11-05T07:40:28.714Z,9.30
2022-11-05T07:42:57.299Z,9.30
2022-11-05T07:45:26.877Z,9.30
2022-11-05T07:47:55.546Z,9.30
2022-11-05T07:50:24.724Z,9.30
2022-11-05T07:52:51.968Z,9.30
2022-11-05T07:55:20.155Z,9.30
2022-11-05T07:57:48.814Z,9.30
2022-11-05T08:00:18.164Z,9.30
2022-11-05T08:02:59.640Z,9.30
2022-11-05T08:05:30.166Z,9.30
2022-11-05T08:07:58.140Z,9.30
2022-11-05T08:10:25.272Z,9.30
2022-11-05T08:12:53.162Z,9.30
2022-11-05T08:15:20.255Z,9.30
2022-11-05T08:17:48.598Z,9.30
2022-11-05T08:20:16.012Z,9.30
2022-11-05T08:22:43.571Z,9.30
2022-11-05T08:25:10.979Z,9.30
2022-11-05T08:27:38.262Z,9.30
2022-11-05T08:30:06.208Z,9.30
2022-11-05T08:32:33.162Z,9.30
2022-11-05T08:35:01.662Z,9.30
2022-11-05T08:37:28.567Z,9.40
2022-11-05T08:39:55.415Z,9.40
2022-11-05T08:42:22.316Z,9.40
2022-11-05T08:44:49.183Z,9.30
2022-11-05T08:47:16.080Z,9.40
2022-11-05T08:49:42.942Z,9.40
2022-11-05T08:52:11.196Z,9.30
2022-11-05T08:54:38.218Z,9.40
2022-11-05T08:57:05.158Z,9.40
2022-11-05T08:59:32.025Z,9.40
2022-11-05T09:01:59.047Z,9.50
2022-11-05T09:04:26.074Z,9.60
2022-11-05T09:06:53.100Z,9.60
2022-11-05T09:09:21.297Z,9.70
2022-11-05T09:12:11.203Z,9.80
2022-11-05T09:14:35.262Z,9.80
2022-11-05T09:17:02.248Z,9.90
2022-11-05T09:19:29.202Z,10.00
2022-11-05T09:21:57.984Z,10.10
2022-11-05T09:24:26.577Z,10.20
2022-11-05T09:26:53.499Z,10.30
2022-11-05T09:29:20.560Z,10.40
2022-11-05T09:31:47.474Z,10.50
2022-11-05T09:34:14.354Z,10.50
2022-11-05T09:36:41.268Z,10.60
2022-11-05T09:39:11.408Z,10.60
2022-11-05T09:41:41.458Z,10.60
2022-11-05T09:44:13.772Z,10.70
2022-11-05T09:46:45.224Z,10.70
2022-11-05T09:49:22.836Z,10.80
2022-11-05T09:51:49.805Z,10.80
2022-11-05T09:54:16.738Z,10.80
2022-11-05T09:56:46.117Z,10.90
2022-11-05T09:59:18.987Z,10.90
2022-11-05T10:01:47.344Z,10.90
2022-11-05T10:04:18.694Z,11.00
2022-11-05T10:06:49.214Z,11.00
2022-11-05T10:09:22.121Z,11.10
2022-11-05T10:11:54.571Z,11.10
2022-11-05T10:14:24.373Z,11.10
2022-11-05T10:16:56.332Z,11.10
2022-11-05T10:19:26.247Z,11.20
2022-11-05T10:22:11.224Z,11.10
2022-11-05T10:24:41.929Z,11.10
2022-11-05T10:27:19.004Z,11.10
2022-11-05T10:29:46.800Z,11.10
2022-11-05T10:32:21.452Z,11.00
2022-11-05T10:34:49.898Z,11.00
2022-11-05T10:37:24.609Z,10.90
2022-11-05T10:39:51.635Z,10.90
2022-11-05T10:42:39.096Z,10.90
2022-11-05T10:45:15.208Z,10.90
2022-11-05T10:47:52.357Z,10.90
2022-11-05T10:50:21.492Z,10.90
2022-11-05T10:52:57.010Z,10.90
2022-11-05T10:55:27.159Z,10.90
2022-11-05T10:58:06.507Z,11.00
2022-11-05T11:00:33.592Z,11.00
2022-11-05T11:03:02.368Z,10.90
2022-11-05T11:05:31.474Z,10.90
2022-11-05T11:08:02.091Z,10.90
2022-11-05T11:10:32.704Z,11.00
2022-11-05T11:13:00.987Z,11.10
2022-11-05T11:15:29.541Z,11.10
2022-11-05T11:17:56.717Z,11.10
2022-11-05T11:20:26.903Z,11.20
2022-11-05T11:23:00.447Z,11.20
2022-11-05T11:25:29.112Z,11.20
2022-11-05T11:28:00.835Z,11.10
2022-11-05T11:30:29.207Z,11.10
2022-11-05T11:33:05.604Z,11.00
2022-11-05T11:35:34.963Z,11.00
2022-11-05T11:38:02.145Z,10.90
2022-11-05T11:40:31.955Z,10.90
2022-11-05T11:43:02.855Z,10.80
2022-11-05T11:45:33.948Z,10.80
2022-11-05T11:48:04.160Z,10.80
2022-11-05T11:50:37.535Z,10.80
2022-11-05T11:53:24.658Z,10.80
2022-11-05T11:56:00.735Z,10.80
2022-11-05T11:58:43.886Z,10.80
2022-11-05T12:01:37.433Z,10.80
2022-11-05T12:04:17.306Z,10.80
2022-11-05T12:06:51.662Z,10.80
2022-11-05T12:09:27.312Z,10.80
2022-11-05T12:12:02.894Z,10.80
2022-11-05T12:14:43.672Z,10.90
2022-11-05T12:17:33.891Z,10.90
2022-11-05T12:20:26.160Z,10.90
2022-11-05T12:23:20.598Z,10.90
2022-11-05T12:25:55.259Z,10.90
2022-11-05T12:28:57.788Z,11.00
2022-11-05T12:31:32.865Z,11.00
2022-11-05T12:34:16.560Z,11.00
2022-11-05T12:37:04.847Z,11.00
2022-11-05T12:39:50.726Z,11.00
2022-11-05T12:42:32.115Z,11.00
2022-11-05T12:45:02.929Z,11.00
2022-11-05T12:47:57.343Z,10.90
2022-11-05T12:50:31.696Z,10.80
2022-11-05T12:53:24.112Z,10.80
2022-11-05T12:55:52.708Z,10.80
2022-11-05T12:58:24.027Z,10.80
2022-11-05T13:00:56.935Z,10.80
2022-11-05T13:03:30.225Z,10.80
2022-11-05T13:06:06.204Z,10.80
2022-11-05T13:08:39.831Z,10.90
2022-11-05T13:11:26.804Z,10.90
2022-11-05T13:14:11.911Z,10.90
2022-11-05T13:16:42.948Z,11.00
2022-11-05T13:19:17.004Z,10.90
2022-11-05T13:21:50.464Z,10.90
2022-11-05T13:24:22.529Z,10.80
2022-11-05T13:26:54.045Z,10.80
2022-11-05T13:29:25.330Z,10.70
2022-11-05T13:31:57.903Z,10.70
2022-11-05T13:34:24.818Z,10.70
2022-11-05T13:37:17.604Z,10.60
2022-11-05T13:39:47.863Z,10.60
2022-11-05T13:42:45.111Z,10.60
2022-11-05T13:45:52.790Z,10.60
2022-11-05T13:48:43.840Z,10.60
2022-11-05T13:51:44.293Z,10.60
2022-11-05T13:54:53.327Z,10.60
2022-11-05T13:57:39.671Z,10.60
2022-11-05T14:00:15.690Z,10.70
2022-11-05T14:02:47.596Z,10.70
2022-11-05T14:05:25.079Z,10.70
2022-11-05T14:07:53.592Z,10.70
2022-11-05T14:10:32.210Z,10.70
2022-11-05T14:13:05.307Z,10.60
2022-11-05T14:15:33.098Z,10.60
2022-11-05T14:18:01.495Z,10.60
2022-11-05T14:20:57.146Z,10.50
2022-11-05T14:23:46.355Z,10.50
2022-11-05T14:26:25.839Z,10.50
2022-11-05T14:29:20.875Z,10.50
2022-11-05T14:32:08.890Z,10.60
2022-11-05T14:34:48.718Z,10.60
2022-11-05T14:37:33.558Z,10.50
2022-11-05T14:40:27.669Z,10.50
2022-11-05T14:42:58.296Z,10.50
2022-11-05T14:45:29.362Z,10.50
2022-11-05T14:48:00.115Z,10.50
2022-11-05T14:50:36.518Z,10.50
2022-11-05T14:53:11.274Z,10.50
2022-11-05T14:55:41.181Z,10.50
2022-11-05T14:58:28.848Z,10.50
2022-11-05T15:00:57.014Z,10.50
2022-11-05T15:03:46.831Z,10.50
2022-11-05T15:06:26.706Z,10.50
2022-11-05T15:09:18.224Z,10.50
2022-11-05T15:12:05.082Z,10.50
2022-11-05T15:14:36.546Z,10.40
2022-11-05T15:17:14.114Z,10.40
2022-11-05T15:19:42.483Z,10.40
2022-11-05T15:22:22.930Z,10.40
2022-11-05T15:24:50.152Z,10.40
2022-11-05T15:27:23.961Z,10.40
2022-11-05T15:29:52.249Z,10.40
2022-11-05T15:32:24.469Z,10.30
2022-11-05T15:34:52.618Z,10.40
2022-11-05T15:37:24.388Z,10.40
2022-11-05T15:39:53.694Z,10.40
2022-11-05T15:42:22.885Z,10.40
2022-11-05T15:44:52.986Z,10.30
2022-11-05T15:47:22.695Z,10.40
2022-11-05T15:49:51.882Z,10.40
2022-11-05T15:52:20.651Z,10.40
2022-11-05T15:55:07.180Z,10.40
2022-11-05T15:57:39.234Z,10.40
2022-11-05T16:00:17.488Z,10.40
2022-11-05T16:02:52.424Z,10.40
2022-11-05T16:05:20.209Z,10.40
2022-11-05T16:07:48.219Z,10.40
2022-11-05T16:10:20.700Z,10.30
2022-11-05T16:12:47.920Z,10.30
2022-11-05T16:15:22.607Z,10.30
2022-11-05T16:17:52.601Z,10.30
2022-11-05T16:20:27.305Z,10.30
2022-11-05T16:22:56.686Z,10.30
2022-11-05T16:25:28.678Z,10.30
2022-11-05T16:27:56.018Z,10.30
2022-11-05T16:30:25.195Z,10.30
2022-11-05T16:32:52.362Z,10.30
2022-11-05T16:35:21.160Z,10.30
2022-11-05T16:37:52.047Z,10.30
2022-11-05T16:40:21.965Z,10.30
2022-11-05T16:42:51.348Z,10.30
2022-11-05T16:45:20.609Z,10.30
2022-11-05T16:47:49.211Z,10.30
2022-11-05T16:50:20.307Z,10.30
2022-11-05T16:52:47.366Z,10.30
2022-11-05T16:55:15.964Z,10.30
2022-11-05T16:57:44.506Z,10.20
2022-11-05T17:00:15.475Z,10.20
2022-11-05T17:02:42.447Z,10.20
2022-11-05T17:05:17.807Z,10.10
2022-11-05T17:07:44.759Z,10.10
2022-11-05T17:10:11.665Z,10.10
2022-11-05T17:12:38.886Z,10.00
2022-11-05T17:15:16.923Z,10.00
2022-11-05T17:17:44.140Z,9.90
2022-11-05T17:20:16.806Z,9.90
2022-11-05T17:22:43.702Z,9.80
2022-11-05T17:25:10.570Z,9.80
2022-11-05T17:27:37.481Z,9.70
2022-11-05T17:30:05.389Z,9.70
2022-11-05T17:32:32.360Z,9.60
2022-11-05T17:34:59.323Z,9.60
2022-11-05T17:37:27.554Z,9.50
2022-11-05T17:39:54.445Z,9.50
2022-11-05T17:42:21.338Z,9.50
2022-11-05T17:44:48.332Z,9.40
2022-11-05T17:47:15.258Z,9.40
2022-11-05T17:49:42.152Z,9.30
2022-11-05T17:52:09.019Z,9.30
2022-11-05T17:54:37.296Z,9.20
2022-11-05T17:57:04.691Z,9.10
2022-11-05T17:59:31.733Z,9.10
2022-11-05T18:01:58.732Z,9.00
2022-11-05T18:04:25.993Z,8.90
2022-11-05T18:06:52.935Z,8.80
2022-11-05T18:09:19.830Z,8.80
2022-11-05T18:11:48.212Z,8.70
2022-11-05T18:14:17.701Z,8.70
2022-11-05T18:16:48.239Z,8.60
2022-11-05T18:19:15.320Z,8.60
2022-11-05T18:21:42.394Z,8.60
2022-11-05T18:24:09.445Z,8.60
2022-11-05T18:26:36.382Z,8.60
2022-11-05T18:29:05.757Z,8.60
2022-11-05T18:31:32.639Z,8.60
2022-11-05T18:34:00.599Z,8.50
2022-11-05T18:36:29.783Z,8.50
2022-11-05T18:38:58.006Z,8.50
2022-11-05T18:41:25.324Z,8.50
2022-11-05T18:43:52.143Z,8.50
2022-11-05T18:46:51.211Z,8.40
2022-11-05T18:49:09.905Z,8.40
2022-11-05T18:51:36.769Z,8.40
2022-11-05T18:54:03.801Z,8.30
2022-11-05T18:56:30.779Z,8.30
2022-11-05T18:59:21.783Z,8.30
2022-11-05T19:01:46.660Z,8.30
2022-11-05T19:04:14.138Z,8.20
2022-11-05T19:06:41.206Z,8.20
2022-11-05T19:09:09.849Z,8.10
2022-11-05T19:11:36.752Z,8.10
2022-11-05T19:14:03.708Z,8.10
2022-11-05T19:16:31.886Z,8.10
2022-11-05T19:19:01.835Z,8.10
2022-11-05T19:21:29.213Z,8.10
2022-11-05T19:23:57.459Z,8.10
2022-11-05T19:26:28.677Z,8.10
2022-11-05T19:28:57.589Z,8.00
2022-11-05T19:31:24.515Z,8.10
2022-11-05T19:33:52.502Z,8.00
2022-11-05T19:36:22.709Z,8.00
2022-11-05T19:38:53.700Z,8.00
2022-11-05T19:41:21.739Z,8.00
2022-11-05T19:43:48.683Z,7.90
2022-11-05T19:46:17.747Z,7.90
2022-11-05T19:48:45.760Z,7.90
2022-11-05T19:51:15.271Z,7.90
2022-11-05T19:53:43.943Z,7.90
2022-11-05T19:56:14.109Z,7.90
2022-11-05T19:58:41.297Z,7.90
2022-11-05T20:01:08.681Z,7.80
2022-11-05T20:03:37.538Z,7.80
2022-11-05T20:06:06.917Z,7.70
2022-11-05T20:08:43.485Z,7.70
2022-11-05T20:11:22.127Z,7.70
2022-11-05T20:13:49.070Z,7.70
2022-11-05T20:16:20.785Z,7.70
2022-11-05T20:18:47.719Z,7.60
2022-11-05T20:21:14.957Z,7.60
2022-11-05T20:23:42.179Z,7.60
2022-11-05T20:26:10.392Z,7.60
2022-11-05T20:28:39.742Z,7.50
2022-11-05T20:31:07.642Z,7.50
2022-11-05T20:33:34.595Z,7.50
2022-11-05T20:36:02.918Z,7.40
2022-11-05T20:38:30.081Z,7.40
2022-11-05T20:40:57.292Z,7.40
2022-11-05T20:43:30.044Z,7.40
2022-11-05T20:45:59.356Z,7.30
2022-11-05T20:48:26.371Z,7.30
2022-11-05T20:50:53.517Z,7.30
2022-11-05T20:53:20.336Z,7.30
2022-11-05T20:55:48.148Z,7.30
2022-11-05T20:58:16.543Z,7.30
2022-11-05T21:00:49.396Z,7.30
2022-11-05T21:03:18.029Z,7.30
2022-11-05T21:05:46.194Z,7.30
2022-11-05T21:08:13.705Z,7.30
2022-11-05T21:10:41.453Z,7.30
2022-11-05T21:13:08.524Z,7.20
2022-11-05T21:15:35.685Z,7.10
2022-11-05T21:18:03.343Z,7.20
2022-11-05T21:20:31.555Z,7.10
2022-11-05T21:22:58.661Z,7.10
2022-11-05T21:25:25.540Z,7.10
2022-11-05T21:27:52.394Z,7.10
2022-11-05T21:30:19.412Z,7.10
2022-11-05T21:32:46.318Z,7.10
2022-11-05T21:35:13.195Z,7.00
2022-11-05T21:37:41.444Z,7.00
2022-11-05T21:40:09.599Z,7.00
2022-11-05T21:42:36.491Z,7.00
2022-11-05T21:45:03.649Z,7.00
2022-11-05T21:47:30.603Z,7.00
2022-11-05T21:49:57.531Z,7.00
2022-11-05T21:52:43.138Z,7.00
2022-11-05T21:55:30.360Z,7.00
2022-11-05T21:58:28.661Z,7.00
2022-11-05T22:00:55.477Z,7.00
2022-11-05T22:03:22.295Z,7.00
2022-11-05T22:05:49.464Z,6.90
2022-11-05T22:08:16.260Z,6.90
2022-11-05T22:10:44.518Z,7.00
2022-11-05T22:13:11.490Z,6.90
2022-11-05T22:15:38.444Z,6.90
2022-11-05T22:18:05.463Z,6.90
2022-11-05T22:20:32.412Z,6.90
2022-11-05T22:22:59.296Z,6.80
2022-11-05T22:25:26.257Z,6.80
2022-11-05T22:27:54.449Z,6.80
2022-11-05T22:30:21.348Z,6.70
2022-11-05T22:32:48.234Z,6.70
2022-11-05T22:35:15.138Z,6.70
2022-11-05T22:37:42.066Z,6.70
2022-11-05T22:40:09.789Z,6.70
2022-11-05T22:42:36.795Z,6.60
2022-11-05T22:45:06.162Z,6.60
2022-11-05T22:47:33.077Z,6.60
2022-11-05T22:49:59.960Z,6.60
2022-11-05T22:52:26.889Z,6.60
2022-11-05T22:54:53.788Z,6.60
2022-11-05T22:57:20.702Z,6.60
2022-11-05T22:59:47.893Z,6.60
2022-11-05T23:02:16.178Z,6.60
2022-11-05T23:04:43.146Z,6.60
2022-11-05T23:07:29.240Z,6.60
2022-11-05T23:10:14.961Z,6.60
2022-11-05T23:12:43.629Z,6.60
2022-11-05T23:15:30.919Z,6.60
2022-11-05T23:18:17.585Z,6.60
2022-11-05T23:21:03.122Z,6.60
2022-11-05T23:23:48.731Z,6.60
2022-11-05T23:26:47.406Z,6.60
2022-11-05T23:29:14.276Z,6.50
2022-11-05T23:31:59.600Z,6.60
2022-11-05T23:34:28.563Z,6.50
2022-11-05T23:37:13.875Z,6.60
2022-11-05T23:39:42.918Z,6.60
2022-11-05T23:42:29.432Z,6.60
2022-11-05T23:45:15.143Z,6.60
2022-11-05T23:48:01.013Z,6.60
2022-11-05T23:50:32.233Z,6.60
2022-11-05T23:53:02.866Z,6.60
2022-11-05T23:55:30.571Z,6.60
2022-11-05T23:57:57.467Z,6.50
